createdAt,value
2018-07-30T00:00:07.089Z,1007.2
2018-07-30T00:01:09.427Z,1007.2
2018-07-30T00:02:11.764Z,1007.2
2018-07-30T00:03:14.113Z,1007.3
2018-07-30T00:04:16.150Z,1007.2
2018-07-30T00:05:18.237Z,1007.2
2018-07-30T00:06:20.689Z,1007.2
2018-07-30T00:07:22.733Z,1007.2
2018-07-30T00:08:24.776Z,1007.2
2018-07-30T00:09:26.825Z,1007.2
2018-07-30T00:10:28.868Z,1007.2
2018-07-30T00:11:30.914Z,1007.2
2018-07-30T00:12:32.967Z,1007.2
2018-07-30T00:13:35.397Z,1007.1
2018-07-30T00:14:37.437Z,1007.1
2018-07-30T00:15:39.489Z,1007.1
2018-07-30T00:16:41.530Z,1007.1
2018-07-30T00:17:43.858Z,1007.1
2018-07-30T00:18:45.907Z,1007.1
2018-07-30T00:19:47.945Z,1007.1
2018-07-30T00:20:49.997Z,1007.1
2018-07-30T00:21:52.327Z,1007.1
2018-07-30T00:22:54.980Z,1007.1
2018-07-30T00:23:57.303Z,1007.1
2018-07-30T00:24:59.357Z,1007.1
2018-07-30T00:26:01.692Z,1007.1
2018-07-30T00:27:04.034Z,1007.1
2018-07-30T00:28:06.093Z,1007.2
2018-07-30T00:29:08.417Z,1007.2
2018-07-30T00:30:10.466Z,1007.2
2018-07-30T00:31:12.808Z,1007.2
2018-07-30T00:32:14.859Z,1007.3
2018-07-30T00:33:16.899Z,1007.2
2018-07-30T00:34:18.947Z,1007.3
2018-07-30T00:35:21.004Z,1007.2
2018-07-30T00:36:23.432Z,1007.2
2018-07-30T00:37:25.764Z,1007.3
2018-07-30T00:38:27.811Z,1007.3
2018-07-30T00:39:29.855Z,1007.3
2018-07-30T00:40:31.899Z,1007.3
2018-07-30T00:41:33.954Z,1007.3
2018-07-30T00:42:36.386Z,1007.3
2018-07-30T00:43:38.436Z,1007.3
2018-07-30T00:44:40.484Z,1007.3
2018-07-30T00:45:42.518Z,1007.3
2018-07-30T00:46:44.566Z,1007.4
2018-07-30T00:47:47.205Z,1007.3
2018-07-30T00:48:49.245Z,1007.3
2018-07-30T00:49:51.293Z,1007.4
2018-07-30T00:50:53.343Z,1007.4
2018-07-30T00:51:55.382Z,1007.3
2018-07-30T00:52:57.438Z,1007.3
2018-07-30T00:53:59.478Z,1007.4
2018-07-30T00:55:01.536Z,1007.3
2018-07-30T00:56:03.974Z,1007.3
2018-07-30T00:57:06.016Z,1007.3
2018-07-30T00:58:08.069Z,1007.3
2018-07-30T00:59:10.113Z,1007.3
2018-07-30T01:00:12.154Z,1007.3
2018-07-30T01:01:14.601Z,1007.3
2018-07-30T01:02:16.640Z,1007.3
2018-07-30T01:03:18.686Z,1007.3
2018-07-30T01:04:20.724Z,1007.3
2018-07-30T01:05:22.779Z,1007.4
2018-07-30T01:06:24.820Z,1007.3
2018-07-30T01:07:26.977Z,1007.3
2018-07-30T01:08:29.031Z,1007.4
2018-07-30T01:09:31.064Z,1007.3
2018-07-30T01:10:33.119Z,1007.4
2018-07-30T01:11:35.163Z,1007.4
2018-07-30T01:12:37.203Z,1007.4
2018-07-30T01:13:39.250Z,1007.3
2018-07-30T01:14:41.299Z,1007.4
2018-07-30T01:15:43.344Z,1007.4
2018-07-30T01:16:45.399Z,1007.4
2018-07-30T01:17:47.441Z,1007.4
2018-07-30T01:18:49.485Z,1007.4
2018-07-30T01:19:51.523Z,1007.3
2018-07-30T01:20:53.573Z,1007.4
2018-07-30T01:21:55.613Z,1007.4
2018-07-30T01:22:57.666Z,1007.4
2018-07-30T01:23:59.717Z,1007.4
2018-07-30T01:25:01.758Z,1007.4
2018-07-30T01:26:03.813Z,1007.4
2018-07-30T01:27:05.853Z,1007.3
2018-07-30T01:28:07.907Z,1007.4
2018-07-30T01:29:09.938Z,1007.4
2018-07-30T01:30:11.989Z,1007.4
2018-07-30T01:31:14.030Z,1007.4
2018-07-30T01:32:16.075Z,1007.4
2018-07-30T01:33:18.126Z,1007.4
2018-07-30T01:34:20.175Z,1007.4
2018-07-30T01:35:22.211Z,1007.4
2018-07-30T01:36:24.260Z,1007.4
2018-07-30T01:37:26.302Z,1007.4
2018-07-30T01:38:28.354Z,1007.4
2018-07-30T01:39:30.393Z,1007.4
2018-07-30T01:40:32.440Z,1007.3
2018-07-30T01:41:34.488Z,1007.4
2018-07-30T01:42:36.520Z,1007.4
2018-07-30T01:43:38.882Z,1007.4
2018-07-30T01:44:40.930Z,1007.4
2018-07-30T01:45:42.965Z,1007.4
2018-07-30T01:46:45.012Z,1007.4
2018-07-30T01:47:47.063Z,1007.4
2018-07-30T01:48:49.106Z,1007.4
2018-07-30T01:49:51.160Z,1007.4
2018-07-30T01:50:53.217Z,1007.4
2018-07-30T01:51:55.252Z,1007.4
2018-07-30T01:52:57.298Z,1007.4
2018-07-30T01:53:59.347Z,1007.4
2018-07-30T01:55:01.696Z,1007.4
2018-07-30T01:56:03.745Z,1007.3
2018-07-30T01:57:05.799Z,1007.4
2018-07-30T01:58:07.835Z,1007.4
2018-07-30T01:59:10.198Z,1007.3
2018-07-30T02:00:12.241Z,1007.3
2018-07-30T02:01:14.280Z,1007.4
2018-07-30T02:02:16.324Z,1007.4
2018-07-30T02:03:18.373Z,1007.4
2018-07-30T02:04:20.798Z,1007.4
2018-07-30T02:05:22.847Z,1007.4
2018-07-30T02:06:25.236Z,1007.4
2018-07-30T02:07:27.559Z,1007.4
2018-07-30T02:08:30.000Z,1007.4
2018-07-30T02:09:32.048Z,1007.4
2018-07-30T02:10:34.095Z,1007.5
2018-07-30T02:11:36.138Z,1007.5
2018-07-30T02:12:38.186Z,1007.5
2018-07-30T02:13:40.237Z,1007.5
2018-07-30T02:14:42.286Z,1007.5
2018-07-30T02:15:44.323Z,1007.5
2018-07-30T02:16:46.379Z,1007.4
2018-07-30T02:17:48.422Z,1007.5
2018-07-30T02:18:50.463Z,1007.5
2018-07-30T02:19:52.896Z,1007.5
2018-07-30T02:20:54.943Z,1007.5
2018-07-30T02:21:56.984Z,1007.5
2018-07-30T02:22:59.320Z,1007.5
2018-07-30T02:24:01.950Z,1007.5
2018-07-30T02:25:03.984Z,1007.5
2018-07-30T02:26:06.025Z,1007.5
2018-07-30T02:27:08.084Z,1007.5
2018-07-30T02:28:10.122Z,1007.5
2018-07-30T02:29:12.171Z,1007.4
2018-07-30T02:30:14.226Z,1007.4
2018-07-30T02:31:16.261Z,1007.4
2018-07-30T02:32:18.319Z,1007.4
2018-07-30T02:33:20.364Z,1007.3
2018-07-30T02:34:22.801Z,1007.4
2018-07-30T02:35:24.842Z,1007.3
2018-07-30T02:36:26.892Z,1007.3
2018-07-30T02:37:29.533Z,1007.3
2018-07-30T02:38:31.889Z,1007.3
2018-07-30T02:39:34.224Z,1007.3
2018-07-30T02:40:36.263Z,1007.3
2018-07-30T02:41:38.318Z,1007.3
2018-07-30T02:42:41.040Z,1007.3
2018-07-30T02:43:43.092Z,1007.3
2018-07-30T02:44:45.430Z,1007.3
2018-07-30T02:45:47.481Z,1007.3
2018-07-30T02:46:49.519Z,1007.3
2018-07-30T02:47:52.168Z,1007.3
2018-07-30T02:48:54.609Z,1007.3
2018-07-30T02:49:56.943Z,1007.3
2018-07-30T02:50:58.985Z,1007.4
2018-07-30T02:52:01.036Z,1007.3
2018-07-30T02:53:03.391Z,1007.3
2018-07-30T02:54:05.716Z,1007.3
2018-07-30T02:55:07.816Z,1007.4
2018-07-30T02:56:09.807Z,1007.3
2018-07-30T02:57:12.152Z,1007.4
2018-07-30T02:58:14.608Z,1007.4
2018-07-30T02:59:16.654Z,1007.4
2018-07-30T03:00:19.286Z,1007.4
2018-07-30T03:01:21.333Z,1007.4
2018-07-30T03:02:23.372Z,1007.4
2018-07-30T03:03:25.414Z,1007.5
2018-07-30T03:04:27.466Z,1007.5
2018-07-30T03:05:29.502Z,1007.5
2018-07-30T03:06:31.552Z,1007.5
2018-07-30T03:07:33.594Z,1007.4
2018-07-30T03:08:35.645Z,1007.5
2018-07-30T03:09:37.683Z,1007.5
2018-07-30T03:10:40.317Z,1007.5
2018-07-30T03:11:42.360Z,1007.5
2018-07-30T03:12:44.403Z,1007.5
2018-07-30T03:13:46.738Z,1007.5
2018-07-30T03:14:48.770Z,1007.5
2018-07-30T03:15:51.121Z,1007.5
2018-07-30T03:16:53.160Z,1007.5
2018-07-30T03:17:55.212Z,1007.5
2018-07-30T03:18:57.253Z,1007.5
2018-07-30T03:19:59.301Z,1007.5
2018-07-30T03:21:01.354Z,1007.4
2018-07-30T03:22:03.394Z,1007.5
2018-07-30T03:23:05.449Z,1007.5
2018-07-30T03:24:07.778Z,1007.5
2018-07-30T03:25:09.818Z,1007.5
2018-07-30T03:26:11.862Z,1007.5
2018-07-30T03:27:13.911Z,1007.5
2018-07-30T03:28:15.954Z,1007.5
2018-07-30T03:29:18.299Z,1007.5
2018-07-30T03:30:20.354Z,1007.5
2018-07-30T03:31:22.697Z,1007.5
2018-07-30T03:32:25.335Z,1007.5
2018-07-30T03:33:27.372Z,1007.5
2018-07-30T03:34:29.418Z,1007.5
2018-07-30T03:35:31.763Z,1007.5
2018-07-30T03:36:33.810Z,1007.5
2018-07-30T03:37:35.856Z,1007.5
2018-07-30T03:38:38.171Z,1007.5
2018-07-30T03:39:40.216Z,1007.5
2018-07-30T03:40:42.256Z,1007.5
2018-07-30T03:41:44.305Z,1007.5
2018-07-30T03:42:46.347Z,1007.6
2018-07-30T03:43:48.398Z,1007.5
2018-07-30T03:44:50.733Z,1007.5
2018-07-30T03:45:52.763Z,1007.5
2018-07-30T03:46:55.204Z,1007.5
2018-07-30T03:47:57.543Z,1007.5
2018-07-30T03:48:59.932Z,1007.5
2018-07-30T03:50:01.974Z,1007.5
2018-07-30T03:51:04.019Z,1007.5
2018-07-30T03:52:06.057Z,1007.5
2018-07-30T03:53:08.105Z,1007.5
2018-07-30T03:54:10.157Z,1007.4
2018-07-30T03:55:12.472Z,1007.4
2018-07-30T03:56:14.527Z,1007.5
2018-07-30T03:57:16.570Z,1007.5
2018-07-30T03:58:19.217Z,1007.4
2018-07-30T03:59:21.264Z,1007.5
2018-07-30T04:00:23.396Z,1007.5
2018-07-30T04:01:25.740Z,1007.5
2018-07-30T04:02:27.786Z,1007.4
2018-07-30T04:03:30.424Z,1007.5
2018-07-30T04:04:32.459Z,1007.4
2018-07-30T04:05:34.791Z,1007.4
2018-07-30T04:06:36.829Z,1007.5
2018-07-30T04:07:39.160Z,1007.4
2018-07-30T04:08:41.494Z,1007.4
2018-07-30T04:09:43.532Z,1007.4
2018-07-30T04:10:46.254Z,1007.4
2018-07-30T04:11:48.292Z,1007.4
2018-07-30T04:12:50.418Z,1007.4
2018-07-30T04:13:52.812Z,1007.4
2018-07-30T04:14:54.863Z,1007.4
2018-07-30T04:15:56.900Z,1007.4
2018-07-30T04:16:58.946Z,1007.4
2018-07-30T04:18:01.294Z,1007.5
2018-07-30T04:19:03.332Z,1007.5
2018-07-30T04:20:05.391Z,1007.5
2018-07-30T04:21:07.425Z,1007.5
2018-07-30T04:22:09.496Z,1007.5
2018-07-30T04:23:11.515Z,1007.4
2018-07-30T04:24:13.863Z,1007.5
2018-07-30T04:25:16.197Z,1007.5
2018-07-30T04:26:18.247Z,1007.5
2018-07-30T04:27:20.297Z,1007.5
2018-07-30T04:28:22.332Z,1007.5
2018-07-30T04:29:24.387Z,1007.5
2018-07-30T04:30:26.428Z,1007.5
2018-07-30T04:31:28.466Z,1007.5
2018-07-30T04:32:30.510Z,1007.5
2018-07-30T04:33:32.555Z,1007.5
2018-07-30T04:34:34.596Z,1007.5
2018-07-30T04:35:36.645Z,1007.4
2018-07-30T04:36:39.083Z,1007.5
2018-07-30T04:37:41.118Z,1007.4
2018-07-30T04:38:43.160Z,1007.4
2018-07-30T04:39:45.209Z,1007.4
2018-07-30T04:40:47.248Z,1007.4
2018-07-30T04:41:49.302Z,1007.4
2018-07-30T04:42:51.351Z,1007.5
2018-07-30T04:43:53.799Z,1007.4
2018-07-30T04:44:55.832Z,1007.5
2018-07-30T04:45:57.881Z,1007.5
2018-07-30T04:46:59.927Z,1007.5
2018-07-30T04:48:01.977Z,1007.5
2018-07-30T04:49:04.306Z,1007.5
2018-07-30T04:50:06.354Z,1007.5
2018-07-30T04:51:08.742Z,1007.5
2018-07-30T04:52:11.173Z,1007.5
2018-07-30T04:53:13.225Z,1007.5
2018-07-30T04:54:15.258Z,1007.5
2018-07-30T04:55:17.298Z,1007.5
2018-07-30T04:56:19.730Z,1007.5
2018-07-30T04:57:22.078Z,1007.5
2018-07-30T04:58:24.121Z,1007.6
2018-07-30T04:59:26.169Z,1007.6
2018-07-30T05:00:28.505Z,1007.5
2018-07-30T05:01:30.941Z,1007.5
2018-07-30T05:02:33.845Z,1007.6
2018-07-30T05:03:36.300Z,1007.6
2018-07-30T05:04:38.715Z,1007.6
2018-07-30T05:05:40.776Z,1007.6
2018-07-30T05:06:42.814Z,1007.6
2018-07-30T05:07:44.851Z,1007.6
2018-07-30T05:08:47.190Z,1007.6
2018-07-30T05:09:49.234Z,1007.7
2018-07-30T05:10:51.268Z,1007.6
2018-07-30T05:11:53.313Z,1007.7
2018-07-30T05:12:55.363Z,1007.6
2018-07-30T05:13:57.400Z,1007.6
2018-07-30T05:14:59.733Z,1007.6
2018-07-30T05:16:02.102Z,1007.6
2018-07-30T05:17:04.138Z,1007.6
2018-07-30T05:18:06.190Z,1007.6
2018-07-30T05:19:08.229Z,1007.6
2018-07-30T05:20:10.275Z,1007.6
2018-07-30T05:21:12.617Z,1007.6
2018-07-30T05:22:14.961Z,1007.6
2018-07-30T05:23:17.388Z,1007.6
2018-07-30T05:24:19.432Z,1007.6
2018-07-30T05:25:21.896Z,1007.6
2018-07-30T05:26:23.900Z,1007.6
2018-07-30T05:27:26.238Z,1007.6
2018-07-30T05:28:28.568Z,1007.6
2018-07-30T05:29:30.616Z,1007.6
2018-07-30T05:30:32.658Z,1007.6
2018-07-30T05:31:34.720Z,1007.6
2018-07-30T05:32:36.745Z,1007.5
2018-07-30T05:33:39.073Z,1007.6
2018-07-30T05:34:41.132Z,1007.5
2018-07-30T05:35:43.167Z,1007.6
2018-07-30T05:36:45.212Z,1007.6
2018-07-30T05:37:47.260Z,1007.6
2018-07-30T05:38:49.304Z,1007.6
2018-07-30T05:39:51.345Z,1007.6
2018-07-30T05:40:53.790Z,1007.6
2018-07-30T05:41:55.830Z,1007.6
2018-07-30T05:42:57.875Z,1007.7
2018-07-30T05:44:00.499Z,1007.7
2018-07-30T05:45:02.542Z,1007.7
2018-07-30T05:46:04.883Z,1007.7
2018-07-30T05:47:06.938Z,1007.7
2018-07-30T05:48:08.976Z,1007.7
2018-07-30T05:49:11.018Z,1007.7
2018-07-30T05:50:13.349Z,1007.7
2018-07-30T05:51:15.385Z,1007.7
2018-07-30T05:52:17.436Z,1007.7
2018-07-30T05:53:19.484Z,1007.7
2018-07-30T05:54:21.533Z,1007.7
2018-07-30T05:55:23.574Z,1007.7
2018-07-30T05:56:25.925Z,1007.7
2018-07-30T05:57:28.013Z,1007.7
2018-07-30T05:58:30.312Z,1007.7
2018-07-30T05:59:32.816Z,1007.7
2018-07-30T06:00:34.883Z,1007.8
2018-07-30T06:01:36.931Z,1007.8
2018-07-30T06:02:38.986Z,1007.7
2018-07-30T06:03:41.026Z,1007.7
2018-07-30T06:04:43.084Z,1007.7
2018-07-30T06:05:45.401Z,1007.7
2018-07-30T06:06:47.446Z,1007.7
2018-07-30T06:07:49.791Z,1007.7
2018-07-30T06:08:52.212Z,1007.8
2018-07-30T06:09:54.268Z,1007.8
2018-07-30T06:10:56.312Z,1007.7
2018-07-30T06:11:58.651Z,1007.7
2018-07-30T06:13:00.688Z,1007.8
2018-07-30T06:14:02.737Z,1007.8
2018-07-30T06:15:04.780Z,1007.8
2018-07-30T06:16:07.136Z,1007.8
2018-07-30T06:17:09.193Z,1007.8
2018-07-30T06:18:11.806Z,1007.8
2018-07-30T06:19:13.847Z,1007.8
2018-07-30T06:20:15.908Z,1007.8
2018-07-30T06:21:18.236Z,1007.8
2018-07-30T06:22:20.277Z,1007.8
2018-07-30T06:23:22.329Z,1007.9
2018-07-30T06:24:24.367Z,1007.9
2018-07-30T06:25:26.421Z,1007.9
2018-07-30T06:26:28.563Z,1007.9
2018-07-30T06:27:31.214Z,1007.9
2018-07-30T06:28:33.546Z,1007.9
2018-07-30T06:29:35.892Z,1007.9
2018-07-30T06:30:37.939Z,1008
2018-07-30T06:31:40.267Z,1007.9
2018-07-30T06:32:42.326Z,1008
2018-07-30T06:33:44.363Z,1008
2018-07-30T06:34:46.411Z,1008
2018-07-30T06:35:48.456Z,1008
2018-07-30T06:36:50.793Z,1008
2018-07-30T06:37:52.836Z,1008
2018-07-30T06:38:54.886Z,1008
2018-07-30T06:39:56.928Z,1008
2018-07-30T06:40:58.989Z,1008.1
2018-07-30T06:42:01.027Z,1008.1
2018-07-30T06:43:03.074Z,1008.1
2018-07-30T06:44:05.513Z,1008.2
2018-07-30T06:45:07.562Z,1008.1
2018-07-30T06:46:09.604Z,1008.1
2018-07-30T06:47:12.044Z,1008.2
2018-07-30T06:48:14.089Z,1008.1
2018-07-30T06:49:16.448Z,1008.1
2018-07-30T06:50:18.783Z,1008.1
2018-07-30T06:51:21.114Z,1008.1
2018-07-30T06:52:23.161Z,1008.1
2018-07-30T06:53:25.217Z,1008.1
2018-07-30T06:54:27.258Z,1008.1
2018-07-30T06:55:29.302Z,1008.1
2018-07-30T06:56:31.352Z,1008.2
2018-07-30T06:57:33.394Z,1008.2
2018-07-30T06:58:35.447Z,1008.2
2018-07-30T06:59:37.498Z,1008.2
2018-07-30T07:00:39.554Z,1008.2
2018-07-30T07:01:41.879Z,1008.2
2018-07-30T07:02:43.935Z,1008.1
2018-07-30T07:03:45.982Z,1008.2
2018-07-30T07:04:48.027Z,1008.2
2018-07-30T07:05:50.086Z,1008.2
2018-07-30T07:06:52.414Z,1008.2
2018-07-30T07:07:54.470Z,1008.2
2018-07-30T07:08:56.803Z,1008.2
2018-07-30T07:09:59.144Z,1008.2
2018-07-30T07:11:01.296Z,1008.2
2018-07-30T07:12:03.773Z,1008.2
2018-07-30T07:13:06.137Z,1008.2
2018-07-30T07:14:08.176Z,1008.3
2018-07-30T07:15:10.249Z,1008.2
2018-07-30T07:16:12.293Z,1008.3
2018-07-30T07:17:14.348Z,1008.2
2018-07-30T07:18:16.418Z,1008.2
2018-07-30T07:19:18.437Z,1008.2
2018-07-30T07:20:20.490Z,1008.2
2018-07-30T07:21:22.627Z,1008.1
2018-07-30T07:22:24.578Z,1008.2
2018-07-30T07:23:26.638Z,1008.2
2018-07-30T07:24:28.686Z,1008.2
2018-07-30T07:25:30.734Z,1008.2
2018-07-30T07:26:33.073Z,1008.2
2018-07-30T07:27:35.114Z,1008.2
2018-07-30T07:28:37.158Z,1008.2
2018-07-30T07:29:39.215Z,1008.2
2018-07-30T07:30:41.539Z,1008.2
2018-07-30T07:31:43.596Z,1008.2
2018-07-30T07:32:45.646Z,1008.2
2018-07-30T07:33:47.703Z,1008.2
2018-07-30T07:34:49.763Z,1008.3
2018-07-30T07:35:52.166Z,1008.2
2018-07-30T07:36:54.497Z,1008.3
2018-07-30T07:37:56.545Z,1008.2
2018-07-30T07:38:58.612Z,1008.3
2018-07-30T07:40:00.651Z,1008.2
2018-07-30T07:41:02.702Z,1008.2
2018-07-30T07:42:04.751Z,1008.3
2018-07-30T07:43:06.808Z,1008.3
2018-07-30T07:44:09.145Z,1008.3
2018-07-30T07:45:11.205Z,1008.2
2018-07-30T07:46:13.259Z,1008.3
2018-07-30T07:47:15.301Z,1008.3
2018-07-30T07:48:17.402Z,1008.3
2018-07-30T07:49:19.410Z,1008.3
2018-07-30T07:50:21.674Z,1008.3
2018-07-30T07:51:24.174Z,1008.3
2018-07-30T07:52:26.230Z,1008.3
2018-07-30T07:53:28.277Z,1008.3
2018-07-30T07:54:30.333Z,1008.3
2018-07-30T07:55:32.386Z,1008.3
2018-07-30T07:56:34.426Z,1008.3
2018-07-30T07:57:36.863Z,1008.4
2018-07-30T07:58:39.309Z,1008.4
2018-07-30T07:59:41.353Z,1008.4
2018-07-30T08:00:43.411Z,1008.4
2018-07-30T08:01:45.467Z,1008.4
2018-07-30T08:02:47.513Z,1008.4
2018-07-30T08:03:49.576Z,1008.4
2018-07-30T08:04:52.233Z,1008.4
2018-07-30T08:05:54.572Z,1008.4
2018-07-30T08:06:56.617Z,1008.4
2018-07-30T08:07:58.679Z,1008.4
2018-07-30T08:09:00.724Z,1008.5
2018-07-30T08:10:02.789Z,1008.5
2018-07-30T08:11:04.891Z,1008.5
2018-07-30T08:12:07.179Z,1008.5
2018-07-30T08:13:09.524Z,1008.5
2018-07-30T08:14:11.574Z,1008.5
2018-07-30T08:15:13.635Z,1008.5
2018-07-30T08:16:15.694Z,1008.5
2018-07-30T08:17:17.736Z,1008.5
2018-07-30T08:18:19.781Z,1008.6
2018-07-30T08:19:21.827Z,1008.5
2018-07-30T08:20:23.890Z,1008.6
2018-07-30T08:21:25.932Z,1008.6
2018-07-30T08:22:27.983Z,1008.6
2018-07-30T08:23:30.038Z,1008.5
2018-07-30T08:24:32.095Z,1008.5
2018-07-30T08:25:34.803Z,1008.5
2018-07-30T08:26:36.860Z,1008.6
2018-07-30T08:27:38.906Z,1008.6
2018-07-30T08:28:40.959Z,1008.6
2018-07-30T08:29:43.028Z,1008.6
2018-07-30T08:30:45.366Z,1008.7
2018-07-30T08:31:47.424Z,1008.6
2018-07-30T08:32:49.493Z,1008.6
2018-07-30T08:33:52.245Z,1008.6
2018-07-30T08:34:54.302Z,1008.6
2018-07-30T08:35:56.348Z,1008.6
2018-07-30T08:36:58.412Z,1008.6
2018-07-30T08:38:00.460Z,1008.6
2018-07-30T08:39:02.512Z,1008.7
2018-07-30T08:40:05.140Z,1008.7
2018-07-30T08:41:07.201Z,1008.6
2018-07-30T08:42:09.653Z,1008.7
2018-07-30T08:43:11.682Z,1008.7
2018-07-30T08:44:14.030Z,1008.7
2018-07-30T08:45:16.071Z,1008.6
2018-07-30T08:46:18.136Z,1008.7
2018-07-30T08:47:20.184Z,1008.7
2018-07-30T08:48:22.242Z,1008.7
2018-07-30T08:49:24.290Z,1008.7
2018-07-30T08:50:26.353Z,1008.8
2018-07-30T08:51:28.685Z,1008.7
2018-07-30T08:52:30.738Z,1008.7
2018-07-30T08:53:32.801Z,1008.7
2018-07-30T08:54:35.533Z,1008.7
2018-07-30T08:55:37.591Z,1008.7
2018-07-30T08:56:39.647Z,1008.8
2018-07-30T08:57:41.979Z,1008.7
2018-07-30T08:58:44.036Z,1008.7
2018-07-30T08:59:46.097Z,1008.7
2018-07-30T09:00:48.147Z,1008.8
2018-07-30T09:01:50.197Z,1008.8
2018-07-30T09:02:52.263Z,1008.8
2018-07-30T09:03:54.608Z,1008.8
2018-07-30T09:04:56.648Z,1008.8
2018-07-30T09:05:58.703Z,1008.8
2018-07-30T09:07:00.755Z,1008.8
2018-07-30T09:08:03.487Z,1008.8
2018-07-30T09:09:05.537Z,1008.8
2018-07-30T09:10:07.599Z,1008.8
2018-07-30T09:11:09.649Z,1008.8
2018-07-30T09:12:11.700Z,1008.8
2018-07-30T09:13:14.279Z,1008.8
2018-07-30T09:14:16.342Z,1008.8
2018-07-30T09:15:18.389Z,1008.8
2018-07-30T09:16:20.444Z,1008.8
2018-07-30T09:17:22.507Z,1008.8
2018-07-30T09:18:24.724Z,1008.8
2018-07-30T09:19:26.616Z,1008.8
2018-07-30T09:20:28.670Z,1008.8
2018-07-30T09:21:30.733Z,1008.8
2018-07-30T09:22:32.787Z,1008.9
2018-07-30T09:23:35.132Z,1008.9
2018-07-30T09:24:37.764Z,1008.9
2018-07-30T09:25:39.813Z,1008.9
2018-07-30T09:26:42.166Z,1008.8
2018-07-30T09:27:44.210Z,1008.9
2018-07-30T09:28:46.265Z,1008.9
2018-07-30T09:29:48.613Z,1008.8
2018-07-30T09:30:50.967Z,1008.9
2018-07-30T09:31:53.691Z,1008.9
2018-07-30T09:32:55.775Z,1008.8
2018-07-30T09:33:57.800Z,1008.9
2018-07-30T09:35:00.153Z,1008.9
2018-07-30T09:36:02.505Z,1008.9
2018-07-30T09:37:04.866Z,1008.9
2018-07-30T09:38:07.210Z,1008.9
2018-07-30T09:39:09.676Z,1008.9
2018-07-30T09:40:11.726Z,1008.9
2018-07-30T09:41:13.777Z,1008.9
2018-07-30T09:42:15.839Z,1008.9
2018-07-30T09:43:17.891Z,1008.9
2018-07-30T09:44:19.952Z,1008.9
2018-07-30T09:45:22.014Z,1008.9
2018-07-30T09:46:24.078Z,1008.9
2018-07-30T09:47:26.425Z,1008.9
2018-07-30T09:48:28.475Z,1008.9
2018-07-30T09:49:30.835Z,1008.9
2018-07-30T09:50:33.604Z,1008.9
2018-07-30T09:51:35.604Z,1008.9
2018-07-30T09:52:37.674Z,1008.9
2018-07-30T09:53:39.740Z,1008.8
2018-07-30T09:54:41.798Z,1008.8
2018-07-30T09:55:43.849Z,1008.8
2018-07-30T09:56:45.914Z,1008.8
2018-07-30T09:57:47.964Z,1008.8
2018-07-30T09:58:50.017Z,1008.8
2018-07-30T09:59:52.088Z,1008.8
2018-07-30T10:00:54.144Z,1008.8
2018-07-30T10:01:56.199Z,1008.8
2018-07-30T10:02:58.259Z,1008.9
2018-07-30T10:04:00.319Z,1008.9
2018-07-30T10:05:02.366Z,1008.9
2018-07-30T10:06:04.782Z,1008.9
2018-07-30T10:07:07.197Z,1008.8
2018-07-30T10:08:09.259Z,1008.8
2018-07-30T10:09:11.331Z,1008.9
2018-07-30T10:10:13.396Z,1008.9
2018-07-30T10:11:15.445Z,1008.9
2018-07-30T10:12:17.806Z,1008.9
2018-07-30T10:13:19.865Z,1008.9
2018-07-30T10:14:22.306Z,1008.9
2018-07-30T10:15:24.370Z,1008.9
2018-07-30T10:16:26.421Z,1008.9
2018-07-30T10:17:28.485Z,1008.9
2018-07-30T10:18:30.850Z,1008.9
2018-07-30T10:19:32.905Z,1008.9
2018-07-30T10:20:34.958Z,1008.9
2018-07-30T10:21:37.025Z,1008.9
2018-07-30T10:22:39.083Z,1008.9
2018-07-30T10:23:41.170Z,1008.9
2018-07-30T10:24:43.209Z,1008.9
2018-07-30T10:25:45.259Z,1008.9
2018-07-30T10:26:47.320Z,1008.9
2018-07-30T10:27:49.373Z,1008.9
2018-07-30T10:28:51.438Z,1008.9
2018-07-30T10:29:53.492Z,1009
2018-07-30T10:30:55.558Z,1008.9
2018-07-30T10:31:57.631Z,1008.9
2018-07-30T10:32:59.968Z,1008.9
2018-07-30T10:34:02.433Z,1008.8
2018-07-30T10:35:04.506Z,1008.9
2018-07-30T10:36:06.570Z,1008.9
2018-07-30T10:37:08.626Z,1008.9
2018-07-30T10:38:11.159Z,1008.9
2018-07-30T10:39:13.134Z,1008.9
2018-07-30T10:40:15.201Z,1008.9
2018-07-30T10:41:17.265Z,1008.9
2018-07-30T10:42:19.606Z,1008.9
2018-07-30T10:43:21.952Z,1008.9
2018-07-30T10:44:24.022Z,1008.9
2018-07-30T10:45:26.078Z,1008.9
2018-07-30T10:46:28.971Z,1008.9
2018-07-30T10:47:30.882Z,1008.9
2018-07-30T10:48:32.940Z,1008.9
2018-07-30T10:49:35.016Z,1008.9
2018-07-30T10:50:37.072Z,1008.9
2018-07-30T10:51:39.140Z,1008.9
2018-07-30T10:52:41.494Z,1008.8
2018-07-30T10:53:43.978Z,1008.8
2018-07-30T10:54:45.963Z,1008.8
2018-07-30T10:55:48.032Z,1008.8
2018-07-30T10:56:50.098Z,1008.9
2018-07-30T10:57:52.152Z,1008.9
2018-07-30T10:58:54.224Z,1008.9
2018-07-30T10:59:56.291Z,1008.8
2018-07-30T11:00:58.401Z,1008.8
2018-07-30T11:02:00.420Z,1008.8
2018-07-30T11:03:02.493Z,1008.9
2018-07-30T11:04:05.238Z,1008.8
2018-07-30T11:05:07.594Z,1008.8
2018-07-30T11:06:09.649Z,1008.8
2018-07-30T11:07:11.726Z,1008.8
2018-07-30T11:08:13.790Z,1008.8
2018-07-30T11:09:15.863Z,1008.9
2018-07-30T11:10:17.929Z,1008.8
2018-07-30T11:11:20.384Z,1008.8
2018-07-30T11:12:22.445Z,1008.8
2018-07-30T11:13:24.513Z,1008.8
2018-07-30T11:14:26.578Z,1008.8
2018-07-30T11:15:28.921Z,1008.8
2018-07-30T11:16:30.986Z,1008.8
2018-07-30T11:17:33.339Z,1008.7
2018-07-30T11:18:35.396Z,1008.8
2018-07-30T11:19:37.462Z,1008.8
2018-07-30T11:20:40.109Z,1008.8
2018-07-30T11:21:42.198Z,1008.8
2018-07-30T11:22:44.244Z,1008.7
2018-07-30T11:23:46.596Z,1008.8
2018-07-30T11:24:48.664Z,1008.8
2018-07-30T11:25:50.722Z,1008.8
2018-07-30T11:26:53.081Z,1008.7
2018-07-30T11:27:55.190Z,1008.7
2018-07-30T11:28:57.647Z,1008.7
2018-07-30T11:30:00.003Z,1008.7
2018-07-30T11:31:02.059Z,1008.7
2018-07-30T11:32:04.143Z,1008.7
2018-07-30T11:33:06.203Z,1008.7
2018-07-30T11:34:08.603Z,1008.7
2018-07-30T11:37:16.960Z,1008.7
2018-07-30T11:38:19.022Z,1008.7
2018-07-30T11:39:21.078Z,1008.7
2018-07-30T11:40:23.175Z,1008.7
2018-07-30T11:41:25.236Z,1008.6
2018-07-30T11:42:27.306Z,1008.7
2018-07-30T11:43:29.378Z,1008.6
2018-07-30T11:44:31.444Z,1008.7
2018-07-30T11:45:33.898Z,1008.7
2018-07-30T11:46:35.960Z,1008.7
2018-07-30T11:47:38.030Z,1008.7
2018-07-30T11:48:40.148Z,1008.6
2018-07-30T11:49:42.964Z,1008.6
2018-07-30T11:50:45.029Z,1008.6
2018-07-30T11:51:47.099Z,1008.6
2018-07-30T11:52:49.158Z,1008.6
2018-07-30T11:53:51.226Z,1008.7
2018-07-30T11:54:53.311Z,1008.7
2018-07-30T11:55:55.378Z,1008.6
2018-07-30T11:56:57.451Z,1008.7
2018-07-30T11:57:59.509Z,1008.7
2018-07-30T11:59:01.868Z,1008.7
2018-07-30T12:00:03.927Z,1008.7
2018-07-30T12:01:06.101Z,1008.7
2018-07-30T12:02:08.057Z,1008.7
2018-07-30T12:03:10.121Z,1008.7
2018-07-30T12:04:12.194Z,1008.6
2018-07-30T12:05:15.219Z,1008.6
2018-07-30T12:06:17.589Z,1008.7
2018-07-30T12:07:19.934Z,1008.7
2018-07-30T12:08:22.002Z,1008.7
2018-07-30T12:09:24.060Z,1008.6
2018-07-30T12:10:26.517Z,1008.6
2018-07-30T12:11:28.572Z,1008.6
2018-07-30T12:12:30.631Z,1008.6
2018-07-30T12:13:32.730Z,1008.5
2018-07-30T12:14:35.155Z,1008.5
2018-07-30T12:15:37.220Z,1008.6
2018-07-30T12:16:39.289Z,1008.5
2018-07-30T12:17:41.351Z,1008.5
2018-07-30T12:18:43.413Z,1008.5
2018-07-30T12:19:45.479Z,1008.5
2018-07-30T12:20:47.547Z,1008.5
2018-07-30T12:21:50.493Z,1008.5
2018-07-30T12:22:53.294Z,1008.5
2018-07-30T12:23:55.364Z,1008.4
2018-07-30T12:24:57.435Z,1008.4
2018-07-30T12:25:59.492Z,1008.5
2018-07-30T12:27:01.558Z,1008.5
2018-07-30T12:28:03.631Z,1008.5
2018-07-30T12:29:05.686Z,1008.5
2018-07-30T12:30:07.805Z,1008.4
2018-07-30T12:31:09.834Z,1008.4
2018-07-30T12:32:12.173Z,1008.4
2018-07-30T12:33:14.235Z,1008.4
2018-07-30T12:34:16.306Z,1008.4
2018-07-30T12:35:18.361Z,1008.4
2018-07-30T12:36:20.470Z,1008.4
2018-07-30T12:37:22.492Z,1008.3
2018-07-30T12:38:24.548Z,1008.3
2018-07-30T12:39:26.904Z,1008.3
2018-07-30T12:40:29.250Z,1008.3
2018-07-30T12:41:31.327Z,1008.3
2018-07-30T12:42:33.663Z,1008.3
2018-07-30T12:43:35.734Z,1008.4
2018-07-30T12:44:38.179Z,1008.3
2018-07-30T12:45:40.266Z,1008.3
2018-07-30T12:46:42.319Z,1008.3
2018-07-30T12:47:44.371Z,1008.4
2018-07-30T12:48:46.461Z,1008.3
2018-07-30T12:49:48.516Z,1008.3
2018-07-30T12:50:50.582Z,1008.3
2018-07-30T12:51:52.643Z,1008.4
2018-07-30T12:52:54.712Z,1008.4
2018-07-30T12:53:56.772Z,1008.4
2018-07-30T12:54:59.413Z,1008.4
2018-07-30T12:56:01.491Z,1008.3
2018-07-30T12:57:03.841Z,1008.3
2018-07-30T12:58:05.897Z,1008.4